sensor_id;sensor_type;location;lat;lon;timestamp;P1;durP1;ratioP1;P2;durP2;ratioP2
5245;SDS011;54412;51.206;6.888;2022-11-15T00:00:50;8.97;;;6.93;;
5245;SDS011;54412;51.206;6.888;2022-11-15T00:03:17;7.83;;;7.00;;
5245;SDS011;54412;51.206;6.888;2022-11-15T00:05:46;13.33;;;7.60;;
5245;SDS011;54412;51.206;6.888;2022-11-15T00:08:12;9.27;;;6.93;;
5245;SDS011;54412;51.206;6.888;2022-11-15T00:10:38;10.40;;;7.03;;
5245;SDS011;54412;51.206;6.888;2022-11-15T00:13:08;12.83;;;7.50;;
5245;SDS011;54412;51.206;6.888;2022-11-15T00:15:36;10.03;;;6.73;;
5245;SDS011;54412;51.206;6.888;2022-11-15T00:18:04;12.63;;;7.00;;
5245;SDS011;54412;51.206;6.888;2022-11-15T00:20:33;12.23;;;7.73;;
5245;SDS011;54412;51.206;6.888;2022-11-15T00:22:59;10.97;;;6.13;;
5245;SDS011;54412;51.206;6.888;2022-11-15T00:25:24;9.50;;;7.27;;
5245;SDS011;54412;51.206;6.888;2022-11-15T00:27:50;9.10;;;7.13;;
5245;SDS011;54412;51.206;6.888;2022-11-15T00:30:20;19.00;;;6.40;;
5245;SDS011;54412;51.206;6.888;2022-11-15T00:32:46;15.20;;;6.53;;
5245;SDS011;54412;51.206;6.888;2022-11-15T00:35:11;7.30;;;6.60;;
5245;SDS011;54412;51.206;6.888;2022-11-15T00:37:37;7.60;;;6.80;;
5245;SDS011;54412;51.206;6.888;2022-11-15T00:40:03;10.67;;;6.83;;
5245;SDS011;54412;51.206;6.888;2022-11-15T00:42:29;11.93;;;6.33;;
5245;SDS011;54412;51.206;6.888;2022-11-15T00:44:55;6.80;;;6.10;;
5245;SDS011;54412;51.206;6.888;2022-11-15T00:47:20;8.27;;;6.40;;
5245;SDS011;54412;51.206;6.888;2022-11-15T00:49:46;6.80;;;5.60;;
5245;SDS011;54412;51.206;6.888;2022-11-15T00:52:11;7.83;;;6.33;;
5245;SDS011;54412;51.206;6.888;2022-11-15T00:54:37;8.53;;;6.33;;
5245;SDS011;54412;51.206;6.888;2022-11-15T00:57:03;11.70;;;6.30;;
5245;SDS011;54412;51.206;6.888;2022-11-15T00:59:29;9.13;;;6.70;;
5245;SDS011;54412;51.206;6.888;2022-11-15T01:01:54;15.10;;;7.00;;
5245;SDS011;54412;51.206;6.888;2022-11-15T01:04:20;7.97;;;6.43;;
5245;SDS011;54412;51.206;6.888;2022-11-15T01:06:45;9.63;;;7.10;;
5245;SDS011;54412;51.206;6.888;2022-11-15T01:09:11;12.00;;;6.73;;
5245;SDS011;54412;51.206;6.888;2022-11-15T01:11:38;10.57;;;5.77;;
5245;SDS011;54412;51.206;6.888;2022-11-15T01:14:04;12.20;;;6.50;;
5245;SDS011;54412;51.206;6.888;2022-11-15T01:16:30;9.30;;;6.47;;
5245;SDS011;54412;51.206;6.888;2022-11-15T01:18:57;7.47;;;6.53;;
5245;SDS011;54412;51.206;6.888;2022-11-15T01:21:23;10.37;;;7.20;;
5245;SDS011;54412;51.206;6.888;2022-11-15T01:23:52;12.67;;;6.50;;
5245;SDS011;54412;51.206;6.888;2022-11-15T01:26:20;10.53;;;7.03;;
5245;SDS011;54412;51.206;6.888;2022-11-15T01:28:47;8.13;;;6.50;;
5245;SDS011;54412;51.206;6.888;2022-11-15T01:31:14;10.03;;;7.43;;
5245;SDS011;54412;51.206;6.888;2022-11-15T01:33:42;7.57;;;6.17;;
5245;SDS011;54412;51.206;6.888;2022-11-15T01:36:12;9.43;;;7.53;;
5245;SDS011;54412;51.206;6.888;2022-11-15T01:38:46;8.67;;;6.90;;
5245;SDS011;54412;51.206;6.888;2022-11-15T01:41:19;6.90;;;6.30;;
5245;SDS011;54412;51.206;6.888;2022-11-15T01:43:55;14.43;;;7.27;;
5245;SDS011;54412;51.206;6.888;2022-11-15T01:46:42;8.47;;;6.53;;
5245;SDS011;54412;51.206;6.888;2022-11-15T01:49:14;8.50;;;6.73;;
5245;SDS011;54412;51.206;6.888;2022-11-15T01:51:45;8.70;;;7.03;;
5245;SDS011;54412;51.206;6.888;2022-11-15T01:54:12;7.70;;;6.50;;
5245;SDS011;54412;51.206;6.888;2022-11-15T01:56:45;11.00;;;6.70;;
5245;SDS011;54412;51.206;6.888;2022-11-15T01:59:24;9.17;;;6.30;;
5245;SDS011;54412;51.206;6.888;2022-11-15T02:01:51;12.87;;;7.60;;
5245;SDS011;54412;51.206;6.888;2022-11-15T02:04:19;12.87;;;7.40;;
5245;SDS011;54412;51.206;6.888;2022-11-15T02:06:55;10.33;;;6.63;;
5245;SDS011;54412;51.206;6.888;2022-11-15T02:09:21;12.43;;;6.60;;
5245;SDS011;54412;51.206;6.888;2022-11-15T02:11:47;8.53;;;6.30;;
5245;SDS011;54412;51.206;6.888;2022-11-15T02:14:15;8.60;;;6.60;;
5245;SDS011;54412;51.206;6.888;2022-11-15T02:19:33;9.57;;;7.10;;
5245;SDS011;54412;51.206;6.888;2022-11-15T02:22:35;11.23;;;7.30;;
5245;SDS011;54412;51.206;6.888;2022-11-15T02:26:04;7.67;;;6.90;;
5245;SDS011;54412;51.206;6.888;2022-11-15T02:28:36;11.87;;;7.23;;
5245;SDS011;54412;51.206;6.888;2022-11-15T02:31:31;10.10;;;7.07;;
5245;SDS011;54412;51.206;6.888;2022-11-15T02:35:00;11.20;;;7.80;;
5245;SDS011;54412;51.206;6.888;2022-11-15T02:40:34;9.87;;;7.53;;
5245;SDS011;54412;51.206;6.888;2022-11-15T02:43:36;9.43;;;6.60;;
5245;SDS011;54412;51.206;6.888;2022-11-15T02:49:13;12.77;;;7.77;;
5245;SDS011;54412;51.206;6.888;2022-11-15T02:51:40;9.03;;;7.20;;
5245;SDS011;54412;51.206;6.888;2022-11-15T02:54:12;7.73;;;6.73;;
5245;SDS011;54412;51.206;6.888;2022-11-15T02:56:45;11.03;;;7.90;;
5245;SDS011;54412;51.206;6.888;2022-11-15T03:05:20;8.90;;;7.00;;
5245;SDS011;54412;51.206;6.888;2022-11-15T03:19:11;9.97;;;6.70;;
5245;SDS011;54412;51.206;6.888;2022-11-15T03:21:46;12.03;;;7.70;;
5245;SDS011;54412;51.206;6.888;2022-11-15T03:24:15;11.90;;;6.70;;
5245;SDS011;54412;51.206;6.888;2022-11-15T03:26:45;7.17;;;6.23;;
5245;SDS011;54412;51.206;6.888;2022-11-15T03:29:16;8.73;;;6.73;;
5245;SDS011;54412;51.206;6.888;2022-11-15T03:31:53;6.57;;;5.90;;
5245;SDS011;54412;51.206;6.888;2022-11-15T03:34:44;11.37;;;6.50;;
5245;SDS011;54412;51.206;6.888;2022-11-15T03:37:50;10.93;;;5.80;;
5245;SDS011;54412;51.206;6.888;2022-11-15T03:40:41;6.40;;;5.80;;
5245;SDS011;54412;51.206;6.888;2022-11-15T03:46:14;7.90;;;6.10;;
5245;SDS011;54412;51.206;6.888;2022-11-15T03:48:50;7.43;;;6.23;;
5245;SDS011;54412;51.206;6.888;2022-11-15T03:51:24;9.50;;;6.80;;
5245;SDS011;54412;51.206;6.888;2022-11-15T03:53:50;7.40;;;6.10;;
5245;SDS011;54412;51.206;6.888;2022-11-15T03:56:16;7.60;;;6.70;;
5245;SDS011;54412;51.206;6.888;2022-11-15T03:58:42;10.83;;;6.57;;
5245;SDS011;54412;51.206;6.888;2022-11-15T04:01:07;6.13;;;5.53;;
5245;SDS011;54412;51.206;6.888;2022-11-15T04:03:33;8.73;;;6.07;;
5245;SDS011;54412;51.206;6.888;2022-11-15T04:05:59;9.70;;;6.37;;
5245;SDS011;54412;51.206;6.888;2022-11-15T04:08:24;6.93;;;5.67;;
5245;SDS011;54412;51.206;6.888;2022-11-15T04:10:50;8.60;;;5.50;;
5245;SDS011;54412;51.206;6.888;2022-11-15T04:13:17;11.17;;;6.30;;
5245;SDS011;54412;51.206;6.888;2022-11-15T04:15:42;7.23;;;6.27;;
5245;SDS011;54412;51.206;6.888;2022-11-15T04:18:08;7.40;;;5.10;;
5245;SDS011;54412;51.206;6.888;2022-11-15T04:20:34;15.60;;;6.10;;
5245;SDS011;54412;51.206;6.888;2022-11-15T04:23:19;5.50;;;5.10;;
5245;SDS011;54412;51.206;6.888;2022-11-15T04:26:07;8.57;;;5.90;;
5245;SDS011;54412;51.206;6.888;2022-11-15T04:28:37;8.57;;;5.67;;
5245;SDS011;54412;51.206;6.888;2022-11-15T04:31:22;9.20;;;5.10;;
5245;SDS011;54412;51.206;6.888;2022-11-15T04:33:48;6.40;;;5.80;;
5245;SDS011;54412;51.206;6.888;2022-11-15T04:36:13;9.23;;;6.03;;
5245;SDS011;54412;51.206;6.888;2022-11-15T04:38:58;10.50;;;6.07;;
5245;SDS011;54412;51.206;6.888;2022-11-15T04:41:23;6.73;;;5.57;;
5245;SDS011;54412;51.206;6.888;2022-11-15T04:43:49;7.17;;;6.00;;
5245;SDS011;54412;51.206;6.888;2022-11-15T04:46:15;9.00;;;6.30;;
5245;SDS011;54412;51.206;6.888;2022-11-15T04:48:40;9.63;;;6.10;;
5245;SDS011;54412;51.206;6.888;2022-11-15T04:51:06;6.80;;;6.17;;
5245;SDS011;54412;51.206;6.888;2022-11-15T04:53:32;9.60;;;6.60;;
5245;SDS011;54412;51.206;6.888;2022-11-15T04:55:57;7.90;;;6.73;;
5245;SDS011;54412;51.206;6.888;2022-11-15T04:58:23;7.40;;;6.70;;
5245;SDS011;54412;51.206;6.888;2022-11-15T05:00:49;6.80;;;6.20;;
5245;SDS011;54412;51.206;6.888;2022-11-15T05:03:14;8.07;;;7.30;;
5245;SDS011;54412;51.206;6.888;2022-11-15T05:05:59;8.23;;;7.30;;
5245;SDS011;54412;51.206;6.888;2022-11-15T05:08:24;8.23;;;7.43;;
5245;SDS011;54412;51.206;6.888;2022-11-15T05:10:50;8.67;;;6.23;;
5245;SDS011;54412;51.206;6.888;2022-11-15T05:13:16;7.37;;;6.67;;
5245;SDS011;54412;51.206;6.888;2022-11-15T05:15:42;8.00;;;7.17;;
5245;SDS011;54412;51.206;6.888;2022-11-15T05:18:08;10.67;;;7.57;;
5245;SDS011;54412;51.206;6.888;2022-11-15T05:20:34;8.83;;;7.30;;
5245;SDS011;54412;51.206;6.888;2022-11-15T05:23:00;7.27;;;6.40;;
5245;SDS011;54412;51.206;6.888;2022-11-15T05:25:26;7.77;;;6.30;;
5245;SDS011;54412;51.206;6.888;2022-11-15T05:27:52;9.27;;;7.40;;
5245;SDS011;54412;51.206;6.888;2022-11-15T05:30:18;8.30;;;7.47;;
5245;SDS011;54412;51.206;6.888;2022-11-15T05:32:44;8.43;;;6.33;;
5245;SDS011;54412;51.206;6.888;2022-11-15T05:35:12;7.87;;;7.13;;
5245;SDS011;54412;51.206;6.888;2022-11-15T05:37:51;8.17;;;7.23;;
5245;SDS011;54412;51.206;6.888;2022-11-15T05:40:17;8.10;;;6.90;;
5245;SDS011;54412;51.206;6.888;2022-11-15T05:42:43;7.43;;;6.60;;
5245;SDS011;54412;51.206;6.888;2022-11-15T05:45:10;7.23;;;6.57;;
5245;SDS011;54412;51.206;6.888;2022-11-15T05:47:36;8.40;;;6.63;;
5245;SDS011;54412;51.206;6.888;2022-11-15T05:50:04;7.10;;;6.50;;
5245;SDS011;54412;51.206;6.888;2022-11-15T05:52:33;6.20;;;5.70;;
5245;SDS011;54412;51.206;6.888;2022-11-15T05:55:02;8.50;;;5.90;;
5245;SDS011;54412;51.206;6.888;2022-11-15T05:57:31;5.80;;;5.30;;
5245;SDS011;54412;51.206;6.888;2022-11-15T05:59:56;9.30;;;6.27;;
5245;SDS011;54412;51.206;6.888;2022-11-15T06:02:22;6.73;;;5.93;;
5245;SDS011;54412;51.206;6.888;2022-11-15T06:04:48;8.27;;;5.77;;
5245;SDS011;54412;51.206;6.888;2022-11-15T06:07:14;6.87;;;6.20;;
5245;SDS011;54412;51.206;6.888;2022-11-15T06:09:39;8.43;;;5.93;;
5245;SDS011;54412;51.206;6.888;2022-11-15T06:12:05;6.07;;;5.50;;
5245;SDS011;54412;51.206;6.888;2022-11-15T06:14:31;6.43;;;5.83;;
5245;SDS011;54412;51.206;6.888;2022-11-15T06:16:57;5.93;;;5.43;;
5245;SDS011;54412;51.206;6.888;2022-11-15T06:19:22;7.40;;;5.47;;
5245;SDS011;54412;51.206;6.888;2022-11-15T06:21:48;6.47;;;5.87;;
5245;SDS011;54412;51.206;6.888;2022-11-15T06:24:14;8.90;;;6.80;;
5245;SDS011;54412;51.206;6.888;2022-11-15T06:26:39;7.07;;;5.90;;
5245;SDS011;54412;51.206;6.888;2022-11-15T06:29:05;6.10;;;5.50;;
5245;SDS011;54412;51.206;6.888;2022-11-15T06:31:31;5.20;;;4.70;;
5245;SDS011;54412;51.206;6.888;2022-11-15T06:33:58;6.40;;;5.80;;
5245;SDS011;54412;51.206;6.888;2022-11-15T06:36:23;5.90;;;5.37;;
5245;SDS011;54412;51.206;6.888;2022-11-15T06:38:49;5.23;;;4.73;;
5245;SDS011;54412;51.206;6.888;2022-11-15T06:41:15;5.13;;;4.63;;
5245;SDS011;54412;51.206;6.888;2022-11-15T06:43:41;9.13;;;5.23;;
5245;SDS011;54412;51.206;6.888;2022-11-15T06:46:07;4.53;;;4.13;;
5245;SDS011;54412;51.206;6.888;2022-11-15T06:48:33;5.40;;;5.00;;
5245;SDS011;54412;51.206;6.888;2022-11-15T06:51:00;4.90;;;4.50;;
5245;SDS011;54412;51.206;6.888;2022-11-15T06:53:29;5.80;;;5.30;;
5245;SDS011;54412;51.206;6.888;2022-11-15T06:55:59;5.57;;;4.77;;
5245;SDS011;54412;51.206;6.888;2022-11-15T06:58:30;4.80;;;4.40;;
5245;SDS011;54412;51.206;6.888;2022-11-15T07:01:00;4.87;;;4.47;;
5245;SDS011;54412;51.206;6.888;2022-11-15T07:03:31;5.13;;;4.67;;
5245;SDS011;54412;51.206;6.888;2022-11-15T07:05:59;5.40;;;5.00;;
5245;SDS011;54412;51.206;6.888;2022-11-15T07:08:26;6.40;;;4.30;;
5245;SDS011;54412;51.206;6.888;2022-11-15T07:10:54;5.13;;;4.27;;
5245;SDS011;54412;51.206;6.888;2022-11-15T07:13:25;6.00;;;4.83;;
5245;SDS011;54412;51.206;6.888;2022-11-15T07:15:52;4.80;;;4.40;;
5245;SDS011;54412;51.206;6.888;2022-11-15T07:18:18;6.80;;;4.40;;
5245;SDS011;54412;51.206;6.888;2022-11-15T07:20:43;4.77;;;4.33;;
5245;SDS011;54412;51.206;6.888;2022-11-15T07:23:09;7.07;;;4.83;;
5245;SDS011;54412;51.206;6.888;2022-11-15T07:25:35;3.93;;;3.60;;
5245;SDS011;54412;51.206;6.888;2022-11-15T07:28:01;4.93;;;4.40;;
5245;SDS011;54412;51.206;6.888;2022-11-15T07:30:27;4.27;;;3.40;;
5245;SDS011;54412;51.206;6.888;2022-11-15T07:32:56;5.10;;;4.47;;
5245;SDS011;54412;51.206;6.888;2022-11-15T07:35:25;4.63;;;4.33;;
5245;SDS011;54412;51.206;6.888;2022-11-15T07:37:56;4.70;;;4.30;;
5245;SDS011;54412;51.206;6.888;2022-11-15T07:40:25;3.73;;;3.43;;
5245;SDS011;54412;51.206;6.888;2022-11-15T07:43:00;4.47;;;4.07;;
5245;SDS011;54412;51.206;6.888;2022-11-15T07:45:29;4.03;;;3.73;;
5245;SDS011;54412;51.206;6.888;2022-11-15T07:47:55;3.80;;;3.50;;
5245;SDS011;54412;51.206;6.888;2022-11-15T07:50:21;4.20;;;3.80;;
5245;SDS011;54412;51.206;6.888;2022-11-15T07:52:55;4.83;;;3.53;;
5245;SDS011;54412;51.206;6.888;2022-11-15T07:55:24;3.57;;;3.27;;
5245;SDS011;54412;51.206;6.888;2022-11-15T07:57:53;4.43;;;3.97;;
5245;SDS011;54412;51.206;6.888;2022-11-15T08:00:25;9.57;;;3.60;;
5245;SDS011;54412;51.206;6.888;2022-11-15T08:02:51;4.73;;;3.43;;
5245;SDS011;54412;51.206;6.888;2022-11-15T08:05:16;5.40;;;3.10;;
5245;SDS011;54412;51.206;6.888;2022-11-15T08:07:42;3.50;;;3.30;;
5245;SDS011;54412;51.206;6.888;2022-11-15T08:10:08;3.60;;;3.30;;
5245;SDS011;54412;51.206;6.888;2022-11-15T08:12:34;3.90;;;3.40;;
5245;SDS011;54412;51.206;6.888;2022-11-15T08:14:59;3.67;;;3.20;;
5245;SDS011;54412;51.206;6.888;2022-11-15T08:17:25;6.13;;;3.27;;
5245;SDS011;54412;51.206;6.888;2022-11-15T08:19:51;4.63;;;4.00;;
5245;SDS011;54412;51.206;6.888;2022-11-15T08:22:17;4.30;;;3.90;;
5245;SDS011;54412;51.206;6.888;2022-11-15T08:24:43;4.73;;;4.20;;
5245;SDS011;54412;51.206;6.888;2022-11-15T08:27:09;6.00;;;3.80;;
5245;SDS011;54412;51.206;6.888;2022-11-15T08:29:43;4.20;;;3.80;;
5245;SDS011;54412;51.206;6.888;2022-11-15T08:32:10;3.97;;;3.67;;
5245;SDS011;54412;51.206;6.888;2022-11-15T08:34:36;3.13;;;2.77;;
5245;SDS011;54412;51.206;6.888;2022-11-15T08:37:03;6.73;;;3.67;;
5245;SDS011;54412;51.206;6.888;2022-11-15T08:39:30;4.50;;;3.53;;
5245;SDS011;54412;51.206;6.888;2022-11-15T08:41:56;5.13;;;3.27;;
5245;SDS011;54412;51.206;6.888;2022-11-15T08:44:22;3.30;;;3.00;;
5245;SDS011;54412;51.206;6.888;2022-11-15T08:46:49;3.27;;;2.97;;
5245;SDS011;54412;51.206;6.888;2022-11-15T08:49:15;5.00;;;3.00;;
5245;SDS011;54412;51.206;6.888;2022-11-15T08:51:41;5.07;;;2.47;;
5245;SDS011;54412;51.206;6.888;2022-11-15T08:54:07;4.50;;;3.07;;
5245;SDS011;54412;51.206;6.888;2022-11-15T08:56:33;3.17;;;2.80;;
5245;SDS011;54412;51.206;6.888;2022-11-15T08:58:58;3.23;;;2.93;;
5245;SDS011;54412;51.206;6.888;2022-11-15T09:01:24;2.83;;;2.60;;
5245;SDS011;54412;51.206;6.888;2022-11-15T09:03:50;3.10;;;2.90;;
5245;SDS011;54412;51.206;6.888;2022-11-15T09:06:16;3.20;;;2.80;;
5245;SDS011;54412;51.206;6.888;2022-11-15T09:08:41;6.73;;;3.13;;
5245;SDS011;54412;51.206;6.888;2022-11-15T09:11:08;3.23;;;3.03;;
5245;SDS011;54412;51.206;6.888;2022-11-15T09:13:35;3.37;;;2.67;;
5245;SDS011;54412;51.206;6.888;2022-11-15T09:16:02;3.27;;;2.60;;
5245;SDS011;54412;51.206;6.888;2022-11-15T09:18:29;4.20;;;2.63;;
5245;SDS011;54412;51.206;6.888;2022-11-15T09:20:56;3.20;;;2.50;;
5245;SDS011;54412;51.206;6.888;2022-11-15T09:23:23;4.73;;;3.10;;
5245;SDS011;54412;51.206;6.888;2022-11-15T09:25:51;6.67;;;3.30;;
5245;SDS011;54412;51.206;6.888;2022-11-15T09:28:17;4.53;;;2.63;;
5245;SDS011;54412;51.206;6.888;2022-11-15T09:30:43;3.30;;;3.00;;
5245;SDS011;54412;51.206;6.888;2022-11-15T09:33:09;3.23;;;3.00;;
5245;SDS011;54412;51.206;6.888;2022-11-15T09:35:37;4.07;;;2.53;;
5245;SDS011;54412;51.206;6.888;2022-11-15T09:38:03;2.13;;;1.93;;
5245;SDS011;54412;51.206;6.888;2022-11-15T09:40:30;2.17;;;2.03;;
5245;SDS011;54412;51.206;6.888;2022-11-15T09:51:23;7.60;;;2.20;;
5245;SDS011;54412;51.206;6.888;2022-11-15T09:56:37;4.60;;;1.67;;
5245;SDS011;54412;51.206;6.888;2022-11-15T10:04:45;1.90;;;1.27;;
5245;SDS011;54412;51.206;6.888;2022-11-15T10:07:15;2.97;;;1.10;;
5245;SDS011;54412;51.206;6.888;2022-11-15T10:12:49;1.20;;;1.10;;
5245;SDS011;54412;51.206;6.888;2022-11-15T10:15:18;1.87;;;1.00;;
5245;SDS011;54412;51.206;6.888;2022-11-15T10:20:39;1.87;;;1.23;;
5245;SDS011;54412;51.206;6.888;2022-11-15T10:23:19;1.73;;;0.80;;
5245;SDS011;54412;51.206;6.888;2022-11-15T10:25:48;1.67;;;1.10;;
5245;SDS011;54412;51.206;6.888;2022-11-15T10:28:26;2.30;;;1.10;;
5245;SDS011;54412;51.206;6.888;2022-11-15T10:30:55;2.17;;;1.10;;
5245;SDS011;54412;51.206;6.888;2022-11-15T10:41:20;0.87;;;0.80;;
5245;SDS011;54412;51.206;6.888;2022-11-15T10:46:40;1.07;;;0.90;;
5245;SDS011;54412;51.206;6.888;2022-11-15T10:49:12;1.70;;;1.30;;
5245;SDS011;54412;51.206;6.888;2022-11-15T10:51:45;1.00;;;0.90;;
5245;SDS011;54412;51.206;6.888;2022-11-15T10:57:25;3.17;;;1.40;;
5245;SDS011;54412;51.206;6.888;2022-11-15T11:00:00;4.13;;;1.03;;
5245;SDS011;54412;51.206;6.888;2022-11-15T11:05:36;1.80;;;1.30;;
5245;SDS011;54412;51.206;6.888;2022-11-15T11:10:37;1.50;;;0.90;;
5245;SDS011;54412;51.206;6.888;2022-11-15T11:13:13;2.50;;;1.20;;
5245;SDS011;54412;51.206;6.888;2022-11-15T11:16:00;3.33;;;1.00;;
5245;SDS011;54412;51.206;6.888;2022-11-15T11:18:46;2.30;;;0.83;;
5245;SDS011;54412;51.206;6.888;2022-11-15T11:33:20;0.83;;;0.80;;
5245;SDS011;54412;51.206;6.888;2022-11-15T11:36:15;4.10;;;0.90;;
5245;SDS011;54412;51.206;6.888;2022-11-15T11:41:47;1.30;;;1.00;;
5245;SDS011;54412;51.206;6.888;2022-11-15T11:47:55;2.77;;;0.83;;
5245;SDS011;54412;51.206;6.888;2022-11-15T11:50:39;4.23;;;1.33;;
5245;SDS011;54412;51.206;6.888;2022-11-15T11:53:14;1.23;;;1.10;;
5245;SDS011;54412;51.206;6.888;2022-11-15T11:55:55;1.60;;;1.03;;
5245;SDS011;54412;51.206;6.888;2022-11-15T11:58:35;2.30;;;0.80;;
5245;SDS011;54412;51.206;6.888;2022-11-15T12:08:47;1.70;;;0.60;;
5245;SDS011;54412;51.206;6.888;2022-11-15T12:11:38;2.97;;;0.77;;
5245;SDS011;54412;51.206;6.888;2022-11-15T12:17:25;2.70;;;1.00;;
5245;SDS011;54412;51.206;6.888;2022-11-15T12:19:58;2.83;;;0.83;;
5245;SDS011;54412;51.206;6.888;2022-11-15T12:22:36;1.80;;;1.00;;
5245;SDS011;54412;51.206;6.888;2022-11-15T12:25:31;3.97;;;1.13;;
5245;SDS011;54412;51.206;6.888;2022-11-15T12:28:11;1.83;;;1.00;;
5245;SDS011;54412;51.206;6.888;2022-11-15T12:31:01;1.33;;;0.93;;
5245;SDS011;54412;51.206;6.888;2022-11-15T12:33:37;4.40;;;0.97;;
5245;SDS011;54412;51.206;6.888;2022-11-15T12:36:11;4.10;;;0.90;;
5245;SDS011;54412;51.206;6.888;2022-11-15T12:39:05;2.50;;;1.00;;
5245;SDS011;54412;51.206;6.888;2022-11-15T12:41:37;4.80;;;1.47;;
5245;SDS011;54412;51.206;6.888;2022-11-15T13:02:33;5.03;;;0.90;;
5245;SDS011;54412;51.206;6.888;2022-11-15T13:12:56;4.10;;;0.90;;
5245;SDS011;54412;51.206;6.888;2022-11-15T13:21:17;4.10;;;0.90;;
5245;SDS011;54412;51.206;6.888;2022-11-15T13:24:14;2.77;;;0.90;;
5245;SDS011;54412;51.206;6.888;2022-11-15T13:26:42;2.13;;;1.20;;
5245;SDS011;54412;51.206;6.888;2022-11-15T13:29:14;3.87;;;1.10;;
5245;SDS011;54412;51.206;6.888;2022-11-15T13:31:43;2.40;;;1.10;;
5245;SDS011;54412;51.206;6.888;2022-11-15T13:34:26;3.13;;;1.27;;
5245;SDS011;54412;51.206;6.888;2022-11-15T13:36:58;5.37;;;2.03;;
5245;SDS011;54412;51.206;6.888;2022-11-15T13:39:33;2.93;;;1.13;;
5245;SDS011;54412;51.206;6.888;2022-11-15T13:42:02;1.40;;;0.80;;
5245;SDS011;54412;51.206;6.888;2022-11-15T13:44:30;5.30;;;0.80;;
5245;SDS011;54412;51.206;6.888;2022-11-15T13:47:13;7.00;;;1.30;;
5245;SDS011;54412;51.206;6.888;2022-11-15T13:49:40;2.20;;;1.17;;
5245;SDS011;54412;51.206;6.888;2022-11-15T13:52:07;4.50;;;0.90;;
5245;SDS011;54412;51.206;6.888;2022-11-15T13:54:58;1.80;;;1.10;;
5245;SDS011;54412;51.206;6.888;2022-11-15T13:57:53;1.37;;;1.00;;
5245;SDS011;54412;51.206;6.888;2022-11-15T14:00:25;3.30;;;1.40;;
5245;SDS011;54412;51.206;6.888;2022-11-15T14:02:55;2.87;;;1.03;;
5245;SDS011;54412;51.206;6.888;2022-11-15T14:05:23;4.03;;;1.60;;
5245;SDS011;54412;51.206;6.888;2022-11-15T14:08:02;10.00;;;1.47;;
5245;SDS011;54412;51.206;6.888;2022-11-15T14:10:47;1.43;;;0.90;;
5245;SDS011;54412;51.206;6.888;2022-11-15T14:13:29;1.73;;;1.00;;
5245;SDS011;54412;51.206;6.888;2022-11-15T14:21:18;2.83;;;1.70;;
5245;SDS011;54412;51.206;6.888;2022-11-15T14:23:45;2.20;;;1.60;;
5245;SDS011;54412;51.206;6.888;2022-11-15T14:26:28;3.03;;;1.70;;
5245;SDS011;54412;51.206;6.888;2022-11-15T14:32:10;11.00;;;2.40;;
5245;SDS011;54412;51.206;6.888;2022-11-15T14:34:41;4.30;;;2.20;;
5245;SDS011;54412;51.206;6.888;2022-11-15T14:37:30;2.53;;;2.20;;
5245;SDS011;54412;51.206;6.888;2022-11-15T14:39:58;3.57;;;2.03;;
5245;SDS011;54412;51.206;6.888;2022-11-15T14:42:24;1.90;;;1.30;;
5245;SDS011;54412;51.206;6.888;2022-11-15T14:44:50;2.17;;;1.97;;
5245;SDS011;54412;51.206;6.888;2022-11-15T14:47:16;2.30;;;1.53;;
5245;SDS011;54412;51.206;6.888;2022-11-15T14:49:43;4.30;;;1.90;;
5245;SDS011;54412;51.206;6.888;2022-11-15T14:54:53;1.77;;;1.60;;
5245;SDS011;54412;51.206;6.888;2022-11-15T14:57:20;2.30;;;1.77;;
5245;SDS011;54412;51.206;6.888;2022-11-15T14:59:46;3.70;;;1.77;;
5245;SDS011;54412;51.206;6.888;2022-11-15T15:02:22;2.80;;;1.77;;
5245;SDS011;54412;51.206;6.888;2022-11-15T15:04:50;3.90;;;1.90;;
5245;SDS011;54412;51.206;6.888;2022-11-15T15:07:17;1.93;;;1.63;;
5245;SDS011;54412;51.206;6.888;2022-11-15T15:09:43;1.60;;;1.50;;
5245;SDS011;54412;51.206;6.888;2022-11-15T15:12:20;3.03;;;1.30;;
5245;SDS011;54412;51.206;6.888;2022-11-15T15:14:48;4.00;;;1.60;;
5245;SDS011;54412;51.206;6.888;2022-11-15T15:17:15;2.40;;;1.70;;
5245;SDS011;54412;51.206;6.888;2022-11-15T15:19:41;2.40;;;1.80;;
5245;SDS011;54412;51.206;6.888;2022-11-15T15:22:14;4.33;;;1.40;;
5245;SDS011;54412;51.206;6.888;2022-11-15T15:24:43;3.37;;;1.90;;
5245;SDS011;54412;51.206;6.888;2022-11-15T15:27:10;4.87;;;2.13;;
5245;SDS011;54412;51.206;6.888;2022-11-15T15:29:37;2.43;;;1.40;;
5245;SDS011;54412;51.206;6.888;2022-11-15T15:32:03;3.97;;;1.73;;
5245;SDS011;54412;51.206;6.888;2022-11-15T15:34:30;2.83;;;1.47;;
5245;SDS011;54412;51.206;6.888;2022-11-15T15:39:47;1.43;;;1.43;;
5245;SDS011;54412;51.206;6.888;2022-11-15T15:42:14;2.47;;;1.67;;
5245;SDS011;54412;51.206;6.888;2022-11-15T15:44:40;1.73;;;1.40;;
5245;SDS011;54412;51.206;6.888;2022-11-15T15:47:12;3.23;;;1.73;;
5245;SDS011;54412;51.206;6.888;2022-11-15T15:49:45;1.97;;;1.77;;
5245;SDS011;54412;51.206;6.888;2022-11-15T15:52:12;2.33;;;1.70;;
5245;SDS011;54412;51.206;6.888;2022-11-15T15:54:38;3.00;;;2.00;;
5245;SDS011;54412;51.206;6.888;2022-11-15T15:57:06;3.10;;;1.50;;
5245;SDS011;54412;51.206;6.888;2022-11-15T15:59:33;2.73;;;1.43;;
5245;SDS011;54412;51.206;6.888;2022-11-15T16:01:59;5.60;;;2.83;;
5245;SDS011;54412;51.206;6.888;2022-11-15T16:04:25;2.60;;;1.70;;
5245;SDS011;54412;51.206;6.888;2022-11-15T16:06:51;3.77;;;2.20;;
5245;SDS011;54412;51.206;6.888;2022-11-15T16:09:19;2.90;;;1.57;;
5245;SDS011;54412;51.206;6.888;2022-11-15T16:12:08;1.60;;;1.50;;
5245;SDS011;54412;51.206;6.888;2022-11-15T16:14:34;3.73;;;1.57;;
5245;SDS011;54412;51.206;6.888;2022-11-15T16:17:00;1.80;;;1.70;;
5245;SDS011;54412;51.206;6.888;2022-11-15T16:19:26;2.67;;;1.70;;
5245;SDS011;54412;51.206;6.888;2022-11-15T16:21:51;1.47;;;1.40;;
5245;SDS011;54412;51.206;6.888;2022-11-15T16:24:18;2.23;;;1.90;;
5245;SDS011;54412;51.206;6.888;2022-11-15T16:26:45;2.03;;;1.50;;
5245;SDS011;54412;51.206;6.888;2022-11-15T16:29:14;1.60;;;1.60;;
5245;SDS011;54412;51.206;6.888;2022-11-15T16:31:40;1.97;;;1.87;;
5245;SDS011;54412;51.206;6.888;2022-11-15T16:34:06;1.80;;;1.70;;
5245;SDS011;54412;51.206;6.888;2022-11-15T16:36:34;1.57;;;1.57;;
5245;SDS011;54412;51.206;6.888;2022-11-15T16:39:00;2.40;;;1.57;;
5245;SDS011;54412;51.206;6.888;2022-11-15T16:41:30;4.40;;;1.63;;
5245;SDS011;54412;51.206;6.888;2022-11-15T16:43:56;1.83;;;1.73;;
5245;SDS011;54412;51.206;6.888;2022-11-15T16:46:23;1.70;;;1.60;;
5245;SDS011;54412;51.206;6.888;2022-11-15T16:48:51;1.80;;;1.70;;
5245;SDS011;54412;51.206;6.888;2022-11-15T16:51:18;1.53;;;1.50;;
5245;SDS011;54412;51.206;6.888;2022-11-15T16:53:44;2.70;;;1.50;;
5245;SDS011;54412;51.206;6.888;2022-11-15T16:56:29;4.80;;;1.90;;
5245;SDS011;54412;51.206;6.888;2022-11-15T16:58:56;3.17;;;1.70;;
5245;SDS011;54412;51.206;6.888;2022-11-15T17:01:24;4.57;;;2.00;;
5245;SDS011;54412;51.206;6.888;2022-11-15T17:03:51;2.30;;;2.10;;
5245;SDS011;54412;51.206;6.888;2022-11-15T17:06:18;1.87;;;1.50;;
5245;SDS011;54412;51.206;6.888;2022-11-15T17:08:45;1.60;;;1.40;;
5245;SDS011;54412;51.206;6.888;2022-11-15T17:11:13;1.73;;;1.63;;
5245;SDS011;54412;51.206;6.888;2022-11-15T17:13:45;3.23;;;1.83;;
5245;SDS011;54412;51.206;6.888;2022-11-15T17:16:13;3.03;;;2.00;;
5245;SDS011;54412;51.206;6.888;2022-11-15T17:18:41;2.37;;;2.00;;
5245;SDS011;54412;51.206;6.888;2022-11-15T17:21:14;2.20;;;1.80;;
5245;SDS011;54412;51.206;6.888;2022-11-15T17:23:42;2.80;;;1.77;;
5245;SDS011;54412;51.206;6.888;2022-11-15T17:26:09;3.13;;;1.33;;
5245;SDS011;54412;51.206;6.888;2022-11-15T17:28:37;8.23;;;1.60;;
5245;SDS011;54412;51.206;6.888;2022-11-15T17:31:07;2.03;;;1.93;;
5245;SDS011;54412;51.206;6.888;2022-11-15T17:33:37;1.57;;;1.57;;
5245;SDS011;54412;51.206;6.888;2022-11-15T17:36:06;1.80;;;1.60;;
5245;SDS011;54412;51.206;6.888;2022-11-15T17:38:35;4.53;;;1.87;;
5245;SDS011;54412;51.206;6.888;2022-11-15T17:41:01;2.20;;;2.10;;
5245;SDS011;54412;51.206;6.888;2022-11-15T17:43:29;2.70;;;2.20;;
5245;SDS011;54412;51.206;6.888;2022-11-15T17:45:57;2.83;;;1.90;;